Time;durP1;ratioP1;P1;durP2;ratioP2;P2;SDS_P1;SDS_P2;PMS_P1;PMS_P2;Temp;Humidity;BMP_temperature;BMP_pressure;BME280_temperature;BME280_humidity;BME280_pressure;Samples;Min_cycle;Max_cycle;Signal;HPM_P1;HPM_P2
2021/07/10 00:00:12;;;;;;;0.70;0.50;;;;;;;15.50;78.36;99355.34;5112931;27;42254;-89
2021/07/10 00:02:39;;;;;;;0.50;0.50;;;;;;;15.52;78.37;99347.25;5115677;27;41297;-92
2021/07/10 00:05:09;;;;;;;0.67;0.67;;;;;;;15.40;78.23;99338.34;5111227;28;41127;-89
2021/07/10 00:07:37;;;;;;;0.80;0.80;;;;;;;15.40;78.38;99338.34;5104805;28;40653;-92
2021/07/10 00:10:07;;;;;;;0.70;0.67;;;;;;;15.44;78.36;99351.34;5110664;28;41880;-89
2021/07/10 00:12:34;;;;;;;0.70;0.70;;;;;;;15.32;78.50;99336.25;5111192;28;41170;-91
2021/07/10 00:15:03;;;;;;;0.77;0.70;;;;;;;15.23;78.62;99326.22;5111330;28;39015;-89
2021/07/10 00:17:32;;;;;;;0.50;0.50;;;;;;;15.26;78.71;99336.69;5111945;28;41067;-90
2021/07/10 00:20:00;;;;;;;0.73;0.73;;;;;;;15.23;78.66;99331.56;5107508;27;41943;-90
2021/07/10 00:22:27;;;;;;;0.70;0.70;;;;;;;15.19;78.79;99326.59;5114264;27;42408;-92
2021/07/10 00:24:55;;;;;;;0.67;0.60;;;;;;;15.23;78.60;99328.91;5114252;27;39785;-90
2021/07/10 00:27:23;;;;;;;0.60;0.60;;;;;;;15.15;78.56;99317.94;5111750;27;40950;-89
2021/07/10 00:29:52;;;;;;;0.80;0.80;;;;;;;15.13;78.82;99313.69;5109933;28;41756;-92
2021/07/10 00:32:20;;;;;;;0.70;0.60;;;;;;;15.08;78.55;99311.38;5093233;28;41455;-88
2021/07/10 00:34:49;;;;;;;1.10;1.00;;;;;;;15.14;78.81;99320.72;5110649;28;38854;-88
2021/07/10 00:37:17;;;;;;;0.47;0.47;;;;;;;15.05;78.83;99306.25;5093936;28;40851;-88
2021/07/10 00:39:44;;;;;;;0.63;0.60;;;;;;;15.01;78.86;99315.44;5111713;27;41934;-89
2021/07/10 00:42:16;;;;;;;0.67;0.67;;;;;;;14.99;78.71;99307.56;5114480;27;41911;-91
2021/07/10 00:44:43;;;;;;;1.10;1.00;;;;;;;15.00;78.90;99313.75;5114345;27;38978;-91
2021/07/10 00:47:11;;;;;;;0.47;0.47;;;;;;;15.03;78.82;99318.84;5128801;27;41993;-87
2021/07/10 00:49:38;;;;;;;0.97;0.80;;;;;;;14.90;78.79;99296.72;5130733;27;43131;-88
2021/07/10 00:52:08;;;;;;;0.53;0.53;;;;;;;14.92;79.04;99310.78;5113670;27;41415;-92
2021/07/10 00:54:37;;;;;;;0.73;0.73;;;;;;;14.93;78.56;99323.16;5113263;27;39625;-91
2021/07/10 00:57:08;;;;;;;0.60;0.60;;;;;;;14.81;78.75;99298.25;5111051;27;41077;-91
2021/07/10 00:59:36;;;;;;;0.50;0.50;;;;;;;14.83;78.79;99299.00;5109974;28;42014;-89
2021/07/10 01:02:05;;;;;;;0.43;0.43;;;;;;;14.77;78.85;99290.56;5111121;28;42453;-89
2021/07/10 01:04:33;;;;;;;0.50;0.50;;;;;;;14.77;79.16;99294.09;5093490;28;39351;-90
2021/07/10 01:07:00;;;;;;;0.70;0.70;;;;;;;14.82;78.70;99307.09;5093874;28;41984;-89
2021/07/10 01:09:31;;;;;;;0.57;0.57;;;;;;;14.62;78.94;99277.38;5109813;28;41618;-93
2021/07/10 01:11:58;;;;;;;0.70;0.67;;;;;;;14.73;79.07;99306.78;5093327;28;41222;-90
2021/07/10 01:14:26;;;;;;;0.60;0.60;;;;;;;14.65;78.96;99292.31;5093468;28;39321;-90
2021/07/10 01:16:55;;;;;;;2.70;0.53;;;;;;;14.62;78.85;99292.53;5095482;28;42024;-91
2021/07/10 01:19:26;;;;;;;0.63;0.63;;;;;;;14.57;78.87;99287.53;5097925;28;41913;-89
2021/07/10 01:21:55;;;;;;;0.43;0.43;;;;;;;14.65;78.84;99310.97;5098394;28;41063;-93
2021/07/10 01:24:24;;;;;;;0.93;0.93;;;;;;;14.62;78.96;99304.03;5096389;28;40131;-90
2021/07/10 01:26:52;;;;;;;0.43;0.43;;;;;;;14.56;79.07;99293.84;5108823;28;40907;-93
2021/07/10 01:29:20;;;;;;;0.50;0.50;;;;;;;14.47;79.25;99278.47;5092555;28;41794;-90
2021/07/10 01:31:48;;;;;;;0.50;0.50;;;;;;;14.55;78.87;99289.47;5112971;27;41168;-89
2021/07/10 01:34:16;;;;;;;0.70;0.70;;;;;;;14.46;79.14;99274.13;5113724;27;39868;-92
2021/07/10 01:36:44;;;;;;;0.70;0.50;;;;;;;14.42;78.94;99272.66;5112944;27;40877;-91
2021/07/10 01:39:13;;;;;;;0.73;0.67;;;;;;;14.48;78.83;99284.66;5113578;27;42120;-91
2021/07/10 01:41:42;;;;;;;0.70;0.70;;;;;;;14.45;78.85;99283.09;5100505;28;41574;-90
2021/07/10 01:44:11;;;;;;;0.60;0.60;;;;;;;14.35;78.91;99271.34;5092917;28;40036;-90
2021/07/10 01:46:39;;;;;;;0.50;0.50;;;;;;;14.32;79.08;99261.78;5109566;28;40504;-87
2021/07/10 01:49:07;;;;;;;0.60;0.60;;;;;;;14.29;79.14;99258.47;5109549;27;42918;-89
2021/07/10 01:51:35;;;;;;;0.70;0.70;;;;;;;14.18;79.22;99242.38;5093293;28;41062;-91
2021/07/10 01:54:03;;;;;;;0.97;0.70;;;;;;;14.14;79.06;99244.41;5092592;28;38813;-91
2021/07/10 01:56:33;;;;;;;0.87;0.57;;;;;;;14.22;79.10;99262.50;5102675;27;40829;-90
2021/07/10 01:59:00;;;;;;;0.73;0.73;;;;;;;14.18;79.20;99255.72;5112670;27;42022;-92
2021/07/10 02:01:28;;;;;;;0.53;0.53;;;;;;;14.15;79.05;99254.13;5113034;27;42159;-90
2021/07/10 02:03:55;;;;;;;1.00;1.00;;;;;;;14.14;79.03;99259.53;5113832;27;39161;-91
2021/07/10 02:06:24;;;;;;;0.70;0.70;;;;;;;14.14;79.26;99270.19;5115650;27;40692;-90
2021/07/10 02:08:51;;;;;;;0.60;0.60;;;;;;;14.08;79.05;99267.97;5113822;27;42260;-89
2021/07/10 02:11:19;;;;;;;0.37;0.37;;;;;;;14.07;79.32;99266.28;5095798;28;41222;-91
2021/07/10 02:13:48;;;;;;;0.50;0.50;;;;;;;13.88;79.31;99238.25;5096506;28;39421;-92
2021/07/10 02:16:16;;;;;;;0.63;0.63;;;;;;;14.02;79.31;99267.44;5096291;28;40946;-91
2021/07/10 02:18:43;;;;;;;0.87;0.87;;;;;;;13.97;79.60;99256.25;5112156;28;41905;-89
2021/07/10 02:21:11;;;;;;;0.60;0.60;;;;;;;13.96;80.24;99257.22;5095940;28;42313;-88
2021/07/10 02:23:39;;;;;;;0.60;0.60;;;;;;;13.94;79.82;99259.16;5095431;28;39353;-92
2021/07/10 02:26:06;;;;;;;0.53;0.53;;;;;;;13.94;80.07;99259.16;5096380;28;40831;-93
2021/07/10 02:28:34;;;;;;;0.80;0.80;;;;;;;13.98;79.87;99276.59;5112120;28;43022;-87
2021/07/10 02:31:03;;;;;;;1.00;0.83;;;;;;;14.01;80.00;99281.72;5095097;28;41283;-87
2021/07/10 02:33:30;;;;;;;0.43;0.43;;;;;;;13.95;79.88;99268.00;5095309;28;40023;-89
2021/07/10 02:35:58;;;;;;;0.80;0.80;;;;;;;13.91;80.07;99254.03;5095565;28;41916;-91
2021/07/10 02:38:26;;;;;;;0.57;0.57;;;;;;;13.92;79.83;99261.06;5132251;27;41974;-90
2021/07/10 02:40:53;;;;;;;1.03;1.00;;;;;;;14.05;79.89;99277.03;5150398;27;41992;-91
2021/07/10 02:43:21;;;;;;;1.07;0.90;;;;;;;13.99;80.47;99257.00;5116113;27;38958;-89
2021/07/10 02:45:48;;;;;;;0.80;0.80;;;;;;;14.11;80.54;99273.91;5112531;28;40982;-89
2021/07/10 02:48:17;;;;;;;1.37;1.27;;;;;;;14.00;80.31;99258.69;5112646;28;42123;-89
2021/07/10 02:50:45;;;;;;;0.80;0.80;;;;;;;14.01;80.48;99255.06;5096131;28;42036;-92
2021/07/10 02:53:13;;;;;;;1.27;0.93;;;;;;;14.04;80.28;99248.69;5077997;28;38886;-92
2021/07/10 02:55:40;;;;;;;1.73;1.13;;;;;;;14.12;80.56;99269.44;5099137;27;41969;-92
2021/07/10 02:58:08;;;;;;;0.90;0.90;;;;;;;14.17;80.41;99267.31;5116456;27;41954;-89
2021/07/10 03:00:36;;;;;;;1.00;1.00;;;;;;;14.14;80.53;99252.41;5116235;27;42405;-89
2021/07/10 03:03:04;;;;;;;0.90;0.87;;;;;;;14.22;80.04;99254.50;5116076;27;38883;-90
2021/07/10 03:05:33;;;;;;;0.80;0.80;;;;;;;14.18;80.25;99235.25;5102588;28;40966;-90
2021/07/10 03:08:01;;;;;;;1.10;1.00;;;;;;;14.44;80.06;99268.06;5095024;28;41733;-90
2021/07/10 03:10:34;;;;;;;1.10;1.10;;;;;;;14.43;80.20;99261.03;5094885;28;42566;-90
2021/07/10 03:13:02;;;;;;;1.07;1.07;;;;;;;14.41;79.95;99252.28;5112091;28;39015;-90
2021/07/10 03:15:29;;;;;;;0.60;0.60;;;;;;;14.51;80.44;99257.81;5110461;28;40734;-91
2021/07/10 03:17:58;;;;;;;1.20;1.10;;;;;;;14.52;80.35;99255.03;5095026;28;41986;-91
2021/07/10 03:20:30;;;;;;;1.47;1.37;;;;;;;14.58;80.18;99265.25;5120366;27;41529;-92
2021/07/10 03:23:01;;;;;;;1.00;1.00;;;;;;;14.62;80.19;99256.06;5114683;27;39969;-90
2021/07/10 03:25:28;;;;;;;0.80;0.80;;;;;;;14.66;80.64;99252.22;5114703;27;40689;-90
2021/07/10 03:27:57;;;;;;;0.70;0.70;;;;;;;14.60;80.38;99246.47;5111815;28;42011;-91
2021/07/10 03:30:26;;;;;;;0.63;0.63;;;;;;;14.69;80.70;99241.34;5111202;28;41541;-92
2021/07/10 03:32:54;;;;;;;0.60;0.60;;;;;;;14.83;80.39;99259.00;5097150;27;38879;-91
2021/07/10 03:35:22;;;;;;;0.87;0.87;;;;;;;14.70;80.71;99231.53;5116384;27;42013;-88
2021/07/10 03:37:52;;;;;;;0.53;0.53;;;;;;;14.78;80.57;99250.47;5119817;27;41710;-91
2021/07/10 03:40:23;;;;;;;0.60;0.60;;;;;;;14.82;80.91;99256.44;5119685;27;41603;-88
2021/07/10 03:42:51;;;;;;;0.60;0.60;;;;;;;14.80;80.43;99253.03;5117832;27;39174;-91
2021/07/10 03:45:19;;;;;;;0.60;0.60;;;;;;;14.70;80.88;99227.03;5117451;27;40839;-88
2021/07/10 03:47:47;;;;;;;0.60;0.60;;;;;;;14.78;80.72;99233.63;5117997;27;41933;-93
2021/07/10 03:50:16;;;;;;;0.70;0.70;;;;;;;14.84;80.69;99243.81;5116460;27;41197;-93
2021/07/10 03:52:44;;;;;;;0.60;0.60;;;;;;;14.86;80.68;99249.88;5118921;27;40123;-90
2021/07/10 03:55:13;;;;;;;0.90;0.90;;;;;;;14.94;80.51;99250.19;5116974;27;40611;-91
2021/07/10 03:57:42;;;;;;;0.77;0.77;;;;;;;14.78;80.63;99217.63;5117994;27;41883;-92
2021/07/10 04:00:13;;;;;;;1.03;1.00;;;;;;;14.59;80.37;99181.63;5118688;27;42424;-90
2021/07/10 04:02:40;;;;;;;1.10;1.00;;;;;;;15.00;80.67;99249.72;5118118;27;38943;-90
2021/07/10 04:05:10;;;;;;;1.13;1.13;;;;;;;14.88;80.34;99234.63;5116680;27;40845;-88
2021/07/10 04:07:38;;;;;;;0.70;0.70;;;;;;;15.04;80.36;99252.06;5115136;27;41874;-90
2021/07/10 04:10:07;;;;;;;0.70;0.70;;;;;;;15.02;80.25;99242.47;5117084;27;42542;-89
2021/07/10 04:12:35;;;;;;;0.87;0.83;;;;;;;14.87;80.45;99216.94;5114537;27;40916;-91
2021/07/10 04:15:05;;;;;;;0.80;0.80;;;;;;;15.09;80.42;99238.34;5098005;28;41775;-90
2021/07/10 04:17:33;;;;;;;0.70;0.70;;;;;;;15.03;80.21;99234.34;5093881;28;41758;-88
2021/07/10 04:20:01;;;;;;;0.77;0.77;;;;;;;15.18;80.56;99242.19;5094815;28;42470;-89
2021/07/10 04:22:29;;;;;;;1.00;1.00;;;;;;;15.12;80.31;99222.13;5110251;28;38922;-88
2021/07/10 04:24:57;;;;;;;0.80;0.73;;;;;;;15.25;80.20;99244.25;5094373;28;40816;-89
2021/07/10 04:27:24;;;;;;;0.60;0.60;;;;;;;15.20;80.05;99230.44;5126862;27;42739;-90
2021/07/10 04:29:52;;;;;;;0.47;0.47;;;;;;;15.23;79.97;99235.50;5109752;28;41586;-89
2021/07/10 04:32:21;;;;;;;0.60;0.60;;;;;;;15.28;79.84;99244.03;5093969;27;39018;-89
2021/07/10 04:34:48;;;;;;;0.50;0.50;;;;;;;15.32;79.80;99248.19;5113052;27;40738;-89
2021/07/10 04:37:16;;;;;;;1.47;0.83;;;;;;;15.47;79.40;99259.47;5114161;27;42002;-89
2021/07/10 04:39:44;;;;;;;0.87;0.87;;;;;;;15.42;79.48;99245.66;5133075;27;42621;-89
2021/07/10 04:42:11;;;;;;;0.70;0.70;;;;;;;15.38;78.98;99225.50;5133128;27;40248;-90
2021/07/10 04:44:39;;;;;;;0.80;0.60;;;;;;;15.52;79.30;99243.13;5098698;28;41092;-89
2021/07/10 04:47:07;;;;;;;0.50;0.50;;;;;;;15.58;79.14;99250.72;5112098;28;41799;-89
2021/07/10 04:49:36;;;;;;;0.50;0.50;;;;;;;15.44;79.13;99211.69;5093689;28;41678;-90
2021/07/10 04:52:04;;;;;;;0.83;0.83;;;;;;;15.70;78.81;99247.09;5099373;27;39051;-89
2021/07/10 04:54:32;;;;;;;0.80;0.60;;;;;;;15.74;79.04;99240.53;5113733;27;41179;-90
2021/07/10 04:57:00;;;;;;;0.60;0.60;;;;;;;15.79;79.18;99244.56;5113802;27;42208;-89
2021/07/10 04:59:27;;;;;;;0.80;0.80;;;;;;;15.88;78.83;99252.81;5099820;28;42872;-90
2021/07/10 05:01:55;;;;;;;0.50;0.50;;;;;;;15.84;78.65;99244.19;5093689;28;39971;-90
2021/07/10 05:04:23;;;;;;;0.87;0.80;;;;;;;15.87;78.75;99251.97;5092979;28;40653;-89
2021/07/10 05:06:52;;;;;;;0.63;0.50;;;;;;;15.93;78.46;99245.31;5093987;27;42001;-90
2021/07/10 05:09:20;;;;;;;0.63;0.63;;;;;;;16.08;78.16;99263.63;5113130;27;42110;-90
2021/07/10 05:11:48;;;;;;;0.67;0.67;;;;;;;16.03;78.26;99247.13;5113966;27;40139;-90
2021/07/10 05:14:16;;;;;;;0.73;0.73;;;;;;;16.18;77.85;99253.09;5105456;28;42000;-90
2021/07/10 05:16:44;;;;;;;0.67;0.67;;;;;;;16.20;77.57;99247.59;5093063;28;41785;-88
2021/07/10 05:19:12;;;;;;;0.80;0.80;;;;;;;16.31;77.47;99252.97;5093414;28;41262;-90
2021/07/10 05:21:40;;;;;;;0.50;0.50;;;;;;;16.34;77.64;99255.38;5110231;28;40007;-91
2021/07/10 05:24:09;;;;;;;0.70;0.70;;;;;;;16.38;77.22;99246.16;5109397;28;40625;-90
2021/07/10 05:26:36;;;;;;;0.90;0.90;;;;;;;16.46;76.92;99244.56;5093534;28;41984;-90
2021/07/10 05:29:05;;;;;;;1.00;1.00;;;;;;;16.62;77.00;99252.22;5092968;28;41181;-90
2021/07/10 05:31:33;;;;;;;0.80;0.80;;;;;;;16.50;76.61;99213.09;5093062;28;39853;-91
2021/07/10 05:34:02;;;;;;;1.00;1.00;;;;;;;16.78;76.36;99251.84;5093722;28;42186;-90
2021/07/10 05:36:29;;;;;;;0.97;0.97;;;;;;;16.83;76.13;99247.78;5092169;28;41866;-89
2021/07/10 05:38:57;;;;;;;0.60;0.60;;;;;;;17.00;75.81;99264.31;5093556;28;42004;-89
2021/07/10 05:41:26;;;;;;;0.70;0.70;;;;;;;17.04;75.58;99252.38;5095700;28;39088;-90
2021/07/10 05:43:54;;;;;;;1.40;0.83;;;;;;;17.10;75.40;99242.00;5098413;27;42012;-91
2021/07/10 05:46:22;;;;;;;1.20;1.10;;;;;;;17.18;75.09;99254.75;5117242;27;42134;-89
2021/07/10 05:48:49;;;;;;;1.07;0.80;;;;;;;17.15;74.97;99241.63;5116436;27;41389;-90
2021/07/10 05:51:17;;;;;;;0.57;0.57;;;;;;;17.19;74.79;99235.03;5116389;27;41155;-91
2021/07/10 05:53:45;;;;;;;1.27;1.17;;;;;;;17.27;75.00;99237.94;5104537;28;40720;-90
2021/07/10 05:56:12;;;;;;;1.10;0.70;;;;;;;17.30;74.76;99226.97;5096312;28;41836;-90
2021/07/10 05:58:41;;;;;;;0.87;0.87;;;;;;;17.59;74.66;99248.59;5096627;28;41704;-92
2021/07/10 06:01:10;;;;;;;0.70;0.70;;;;;;;17.72;74.38;99251.09;5099637;28;41164;-92
2021/07/10 06:03:38;;;;;;;0.63;0.63;;;;;;;17.74;74.37;99241.09;5096542;28;41859;-90
2021/07/10 06:06:05;;;;;;;0.90;0.90;;;;;;;17.82;73.83;99235.91;5096773;28;42862;-90
2021/07/10 06:08:33;;;;;;;0.60;0.60;;;;;;;18.02;74.00;99237.75;5095937;28;42250;-91
2021/07/10 06:11:00;;;;;;;1.20;1.10;;;;;;;18.19;73.33;99245.13;5080199;28;40063;-90
2021/07/10 06:13:29;;;;;;;1.47;1.03;;;;;;;18.23;73.15;99235.84;5111112;28;41869;-90
2021/07/10 06:15:58;;;;;;;1.10;1.00;;;;;;;18.34;72.89;99236.75;5105922;28;42975;-90
2021/07/10 06:18:25;;;;;;;0.80;0.80;;;;;;;18.46;72.04;99254.44;5113554;28;41696;-92
2021/07/10 06:20:53;;;;;;;0.93;0.93;;;;;;;18.54;72.20;99243.88;5113033;28;39855;-90
2021/07/10 06:23:21;;;;;;;0.87;0.87;;;;;;;18.55;71.53;99230.31;5114625;27;40809;-92
2021/07/10 06:25:48;;;;;;;1.10;1.10;;;;;;;18.78;71.32;99247.09;5116686;27;43104;-92
2021/07/10 06:28:16;;;;;;;1.10;1.10;;;;;;;18.90;71.31;99234.38;5120599;27;41207;-93
2021/07/10 06:30:44;;;;;;;0.93;0.93;;;;;;;19.02;70.97;99239.50;5110739;28;38997;-91
2021/07/10 06:33:14;;;;;;;0.80;0.80;;;;;;;19.11;70.88;99220.84;5116720;28;40893;-93
2021/07/10 06:35:42;;;;;;;1.33;1.07;;;;;;;19.41;70.42;99255.59;5098483;28;41752;-91
2021/07/10 06:38:09;;;;;;;1.10;1.00;;;;;;;19.36;69.98;99225.63;5100868;28;42235;-91
2021/07/10 06:40:37;;;;;;;1.17;1.07;;;;;;;19.42;70.30;99218.84;5098391;28;40051;-91
2021/07/10 06:43:05;;;;;;;0.97;0.87;;;;;;;19.58;69.87;99213.75;5097390;28;40612;-94
2021/07/10 06:45:33;;;;;;;0.70;0.70;;;;;;;19.70;69.71;99196.47;5107600;28;41776;-94
2021/07/10 06:48:01;;;;;;;1.47;1.37;;;;;;;19.83;69.55;99194.31;5113803;28;42452;-96
2021/07/10 06:50:31;;;;;;;1.20;1.10;;;;;;;20.11;69.34;99203.28;5094834;28;38914;-92
2021/07/10 06:52:59;;;;;;;1.00;1.00;;;;;;;20.46;68.95;99225.94;5097193;27;42006;-93
2021/07/10 06:55:27;;;;;;;0.93;0.90;;;;;;;20.79;68.37;99245.00;5116483;27;42888;-92
2021/07/10 06:57:55;;;;;;;1.23;1.17;;;;;;;20.93;67.88;99232.03;5117354;27;42508;-92
2021/07/10 07:00:23;;;;;;;1.93;1.60;;;;;;;20.92;66.72;99201.56;5106559;28;40260;-91
2021/07/10 07:02:50;;;;;;;1.37;1.10;;;;;;;21.16;66.02;99214.44;5111685;28;40978;-91
2021/07/10 07:05:18;;;;;;;1.07;1.07;;;;;;;21.36;65.69;99244.78;5111557;28;41630;-91
2021/07/10 07:07:47;;;;;;;2.00;1.50;;;;;;;21.54;65.04;99244.75;5094763;28;41533;-92
2021/07/10 07:10:15;;;;;;;1.90;1.80;;;;;;;21.53;64.40;99222.34;5113289;27;39875;-92
2021/07/10 07:12:44;;;;;;;1.80;1.70;;;;;;;21.83;64.74;99251.59;5115498;27;41230;-92
2021/07/10 07:15:13;;;;;;;1.57;1.47;;;;;;;21.90;64.32;99245.53;5112477;27;41770;-92
2021/07/10 07:17:41;;;;;;;1.57;1.30;;;;;;;21.63;64.58;99189.94;5095689;28;42109;-92
2021/07/10 07:20:13;;;;;;;1.80;1.47;;;;;;;22.32;64.51;99246.50;5111748;28;39149;-91
2021/07/10 07:22:43;;;;;;;1.40;1.30;;;;;;;22.68;63.08;99247.16;5112252;28;41572;-92
2021/07/10 07:25:13;;;;;;;1.40;1.30;;;;;;;23.04;61.56;99261.31;5111755;28;42741;-92
2021/07/10 07:27:40;;;;;;;1.73;1.53;;;;;;;23.16;60.78;99257.28;5094856;28;41197;-92
2021/07/10 07:30:11;;;;;;;1.50;1.40;;;;;;;22.96;61.46;99228.91;5095127;28;40107;-92
2021/07/10 07:35:21;;;;;;;1.73;1.43;;;;;;;23.40;60.52;99220.50;5096560;28;41840;-90
2021/07/10 07:37:50;;;;;;;1.77;1.23;;;;;;;23.57;58.92;99238.44;5113704;27;41836;-92
2021/07/10 07:40:22;;;;;;;1.33;1.23;;;;;;;24.36;58.15;99239.53;5125003;27;39007;-94
2021/07/10 07:42:50;;;;;;;1.90;1.80;;;;;;;26.22;54.46;99262.66;5134945;27;41147;-94
2021/07/10 07:45:20;;;;;;;1.40;1.30;;;;;;;27.88;50.35;99255.50;5117897;27;42841;-91
2021/07/10 07:47:49;;;;;;;1.57;1.30;;;;;;;29.61;47.15;99297.97;5115858;28;42614;-93
2021/07/10 07:50:19;;;;;;;1.00;0.90;;;;;;;30.91;44.74;99283.59;5110758;28;39328;-90
2021/07/10 07:52:47;;;;;;;1.50;1.40;;;;;;;32.03;42.39;99284.84;5112864;28;40824;-90
2021/07/10 07:55:16;;;;;;;1.10;1.03;;;;;;;32.73;41.17;99269.03;5115034;28;41785;-90
2021/07/10 07:57:45;;;;;;;1.30;1.20;;;;;;;33.37;39.44;99284.09;5114162;28;40957;-89
2021/07/10 08:00:15;;;;;;;1.30;1.20;;;;;;;33.48;39.15;99280.56;5114694;28;39006;-90
2021/07/10 08:02:43;;;;;;;1.30;1.20;;;;;;;33.16;40.68;99264.25;5114595;28;40530;-90
2021/07/10 08:05:12;;;;;;;1.30;1.30;;;;;;;32.31;40.27;99257.84;5106487;27;41905;-90
2021/07/10 08:07:41;;;;;;;1.33;1.23;;;;;;;31.23;41.43;99216.13;5133086;27;41291;-89
2021/07/10 08:10:11;;;;;;;1.03;1.03;;;;;;;31.08;43.10;99219.13;5125683;27;38961;-92
2021/07/10 08:12:39;;;;;;;1.23;1.17;;;;;;;31.72;42.48;99237.28;5124320;27;41651;-89
2021/07/10 08:15:10;;;;;;;1.30;1.20;;;;;;;32.52;41.28;99209.16;5119868;28;41835;-89
2021/07/10 08:17:38;;;;;;;1.80;1.70;;;;;;;33.28;39.08;99227.81;5104745;28;43213;-90
2021/07/10 08:20:07;;;;;;;0.80;0.80;;;;;;;33.69;38.83;99214.06;5102145;28;39968;-92
2021/07/10 08:22:35;;;;;;;0.90;0.90;;;;;;;33.87;37.25;99219.50;5120079;28;40790;-89
2021/07/10 08:25:04;;;;;;;1.50;1.40;;;;;;;33.99;37.52;99265.41;5103136;28;42644;-89
2021/07/10 08:27:32;;;;;;;1.20;1.10;;;;;;;33.42;38.30;99248.50;5101329;28;42017;-92
2021/07/10 08:30:01;;;;;;;1.10;1.10;;;;;;;32.75;37.37;99223.03;5107806;28;39110;-91
2021/07/10 08:32:30;;;;;;;1.37;1.27;;;;;;;32.63;38.97;99250.34;5100781;28;40552;-93
2021/07/10 08:34:58;;;;;;;1.60;1.50;;;;;;;32.59;39.69;99223.59;5102497;28;42082;-88
2021/07/10 08:37:26;;;;;;;1.13;1.13;;;;;;;32.79;39.49;99200.38;5116479;28;41438;-89
2021/07/10 08:39:54;;;;;;;0.90;0.90;;;;;;;33.18;39.25;99209.97;5102670;28;39328;-91
2021/07/10 08:42:23;;;;;;;1.00;1.00;;;;;;;33.89;37.37;99233.81;5102674;28;42354;-88
2021/07/10 08:44:54;;;;;;;1.37;1.27;;;;;;;34.98;36.08;99242.41;5101836;28;41931;-89
2021/07/10 08:47:24;;;;;;;1.20;1.10;;;;;;;36.09;33.80;99237.28;5105630;28;41638;-89
2021/07/10 08:49:53;;;;;;;0.77;0.77;;;;;;;37.12;31.87;99247.53;5103749;28;40004;-89
2021/07/10 08:52:22;;;;;;;1.10;1.00;;;;;;;37.55;30.40;99278.97;5106724;28;41901;-92
2021/07/10 08:54:59;;;;;;;1.17;1.07;;;;;;;37.74;29.65;99238.81;5100300;28;42609;-92
2021/07/10 08:57:27;;;;;;;0.70;0.70;;;;;;;38.09;29.34;99241.06;5101397;28;42310;-89
2021/07/10 08:59:55;;;;;;;0.93;0.93;;;;;;;38.29;29.41;99257.00;5100695;28;40130;-93
2021/07/10 09:02:23;;;;;;;1.10;1.10;;;;;;;38.39;28.28;99257.88;5111905;28;41993;-91
2021/07/10 09:04:52;;;;;;;1.20;1.10;;;;;;;38.15;28.31;99277.91;5129409;27;43188;-92
2021/07/10 09:07:20;;;;;;;0.90;0.90;;;;;;;37.43;26.68;99270.00;5099021;28;42564;-90
2021/07/10 09:09:50;;;;;;;0.80;0.80;;;;;;;36.88;30.04;99240.63;5110246;28;41000;-91
2021/07/10 09:12:28;;;;;;;0.97;0.97;;;;;;;36.88;30.20;99241.47;5094468;28;40618;-93
2021/07/10 09:15:16;;;;;;;1.10;1.00;;;;;;;36.87;27.91;99227.91;5096881;28;42607;-92
2021/07/10 09:17:46;;;;;;;1.00;1.00;;;;;;;37.32;28.75;99250.56;5097438;28;41455;-91
2021/07/10 09:20:24;;;;;;;1.03;1.03;;;;;;;37.10;30.04;99226.78;5096993;28;39085;-89
2021/07/10 09:22:53;;;;;;;1.20;1.10;;;;;;;37.42;29.12;99216.69;5107266;27;40698;-91
2021/07/10 09:25:26;;;;;;;1.37;1.27;;;;;;;37.16;28.14;99207.28;5117804;27;42643;-89
2021/07/10 09:27:56;;;;;;;1.20;1.10;;;;;;;36.90;29.03;99233.75;5117176;27;41242;-90
2021/07/10 09:30:32;;;;;;;1.30;1.20;;;;;;;36.39;29.02;99232.22;5133502;27;39265;-90
2021/07/10 09:33:16;;;;;;;0.90;0.90;;;;;;;35.28;31.79;99214.63;5095011;28;41309;-87
2021/07/10 09:35:52;;;;;;;0.90;0.90;;;;;;;34.49;32.95;99172.28;5095331;28;43234;-88
2021/07/10 09:38:24;;;;;;;1.77;1.23;;;;;;;34.44;32.45;99192.25;5112537;28;41439;-89
2021/07/10 09:41:00;;;;;;;1.27;1.17;;;;;;;34.18;33.89;99188.06;5097215;28;39247;-90
2021/07/10 09:43:30;;;;;;;1.27;1.17;;;;;;;34.29;34.74;99172.66;5096982;28;41112;-90
2021/07/10 09:46:01;;;;;;;0.90;0.90;;;;;;;35.02;32.51;99194.00;5096849;28;42994;-89
2021/07/10 09:48:31;;;;;;;1.30;1.27;;;;;;;35.57;32.67;99193.38;5079445;28;41616;-88
2021/07/10 09:51:22;;;;;;;1.20;1.10;;;;;;;35.90;28.90;99212.69;5079954;28;39002;-89
2021/07/10 09:54:02;;;;;;;0.80;0.80;;;;;;;36.51;28.62;99201.75;5108359;27;40431;-87
2021/07/10 09:56:31;;;;;;;1.30;1.20;;;;;;;37.65;28.30;99215.53;5132547;27;42120;-87
2021/07/10 09:59:18;;;;;;;1.00;1.00;;;;;;;38.23;27.83;99197.16;5116507;27;41533;-91
2021/07/10 10:01:48;;;;;;;1.40;1.30;;;;;;;38.83;25.07;99226.28;5129430;27;41188;-88
2021/07/10 10:04:26;;;;;;;0.80;0.80;;;;;;;39.14;25.78;99214.25;5096107;28;40624;-88
2021/07/10 10:07:00;;;;;;;0.70;0.70;;;;;;;39.36;25.06;99222.31;5112270;28;43243;-89
2021/07/10 10:09:32;;;;;;;0.90;0.90;;;;;;;38.70;25.46;99220.13;5109912;27;41094;-89
2021/07/10 10:12:05;;;;;;;0.60;0.60;;;;;;;37.35;28.28;99200.28;5134219;27;39907;-88
2021/07/10 10:14:41;;;;;;;0.90;0.90;;;;;;;36.18;29.57;99180.59;5116522;27;41583;-86
2021/07/10 10:17:09;;;;;;;1.10;1.10;;;;;;;35.58;31.11;99153.72;5110826;28;41934;-89
2021/07/10 10:19:38;;;;;;;1.20;1.10;;;;;;;35.12;31.51;99144.63;5095108;28;42824;-86
2021/07/10 10:22:09;;;;;;;0.80;0.80;;;;;;;35.13;30.43;99179.34;5095250;28;38962;-87
2021/07/10 10:24:39;;;;;;;1.47;1.17;;;;;;;35.48;30.42;99183.88;5095483;28;40785;-86
2021/07/10 10:27:08;;;;;;;1.07;1.07;;;;;;;35.64;29.79;99174.75;5096666;27;41727;-88
2021/07/10 10:29:37;;;;;;;0.90;0.90;;;;;;;35.56;30.21;99170.50;5116255;27;44090;-87
2021/07/10 10:32:10;;;;;;;0.93;0.93;;;;;;;35.17;30.78;99136.47;5114901;27;40608;-88
2021/07/10 10:34:41;;;;;;;1.20;1.20;;;;;;;34.86;29.30;99178.28;5116613;27;41701;-88
2021/07/10 10:37:12;;;;;;;1.10;1.00;;;;;;;34.05;30.29;99151.75;5103263;28;41852;-87
2021/07/10 10:39:40;;;;;;;0.90;0.90;;;;;;;33.80;31.53;99136.34;5112997;28;42115;-88
2021/07/10 10:42:10;;;;;;;1.43;1.10;;;;;;;33.98;30.51;99159.28;5095639;28;40446;-89
2021/07/10 10:44:41;;;;;;;0.77;0.77;;;;;;;34.07;31.54;99130.34;5148206;27;41968;-88
2021/07/10 10:47:11;;;;;;;0.97;0.97;;;;;;;34.33;30.89;99146.34;5111671;28;41742;-86
2021/07/10 10:49:47;;;;;;;1.07;1.00;;;;;;;34.38;30.56;99154.69;5095030;28;41718;-88
2021/07/10 10:52:32;;;;;;;1.00;1.00;;;;;;;33.97;31.22;99146.63;5094407;28;41113;-87
2021/07/10 10:55:05;;;;;;;0.93;0.93;;;;;;;33.46;32.23;99128.88;5112676;28;41130;-86
2021/07/10 10:57:40;;;;;;;0.90;0.90;;;;;;;33.40;33.26;99107.84;5095001;28;43245;-87
2021/07/10 11:00:14;;;;;;;1.03;1.00;;;;;;;33.42;33.86;99116.69;5115401;27;41703;-87
2021/07/10 11:02:55;;;;;;;0.90;0.90;;;;;;;33.34;34.94;99086.84;5115829;27;40106;-86
2021/07/10 11:05:57;;;;;;;1.30;1.20;;;;;;;33.48;31.54;99126.75;5115567;27;41315;-86
2021/07/10 11:08:35;;;;;;;0.80;0.80;;;;;;;33.40;31.92;99130.66;5098916;28;42589;-87
2021/07/10 11:11:34;;;;;;;0.80;0.80;;;;;;;33.46;33.43;99116.00;5094481;28;41063;-85
2021/07/10 11:14:28;;;;;;;0.80;0.80;;;;;;;33.49;32.35;99128.44;5108915;27;40234;-87
2021/07/10 11:17:10;;;;;;;0.87;0.87;;;;;;;33.40;32.47;99118.84;5097684;27;41550;-86
2021/07/10 11:19:55;;;;;;;1.10;1.00;;;;;;;33.06;33.55;99113.03;5132707;27;42304;-85
2021/07/10 11:22:54;;;;;;;0.90;0.90;;;;;;;33.12;32.43;99116.75;5110660;28;41250;-86
2021/07/10 11:26:02;;;;;;;1.03;1.03;;;;;;;33.15;32.63;99106.13;5066380;28;41083;-88
2021/07/10 11:28:34;;;;;;;0.80;0.80;;;;;;;33.11;33.13;99104.09;5093574;28;40996;-85
2021/07/10 11:31:04;;;;;;;0.77;0.77;;;;;;;32.99;33.44;99087.59;5112669;28;41770;-85
2021/07/10 11:34:11;;;;;;;0.80;0.80;;;;;;;33.14;33.96;99092.63;5095536;28;41414;-87
2021/07/10 11:36:58;;;;;;;0.70;0.70;;;;;;;32.86;32.82;99103.44;5094182;28;39292;-86
2021/07/10 11:39:43;;;;;;;0.70;0.70;;;;;;;32.43;33.97;99086.03;5111853;27;41849;-85
2021/07/10 11:42:44;;;;;;;1.07;1.03;;;;;;;32.06;32.77;99101.66;5132489;27;43006;-86
2021/07/10 11:45:31;;;;;;;1.00;0.90;;;;;;;32.00;34.39;99079.81;5039502;28;41229;-85
2021/07/10 11:48:01;;;;;;;1.03;1.03;;;;;;;32.04;35.63;99059.09;5121930;27;42331;-85
2021/07/10 11:50:36;;;;;;;0.77;0.77;;;;;;;32.51;35.61;99059.38;5128695;27;41721;-85